Time;durP1;ratioP1;P1;durP2;ratioP2;P2;SDS_P1;SDS_P2;PMS_P1;PMS_P2;Temp;Humidity;BMP_temperature;BMP_pressure;BME280_temperature;BME280_humidity;BME280_pressure;Samples;Min_cycle;Max_cycle;Signal;HPM_P1;HPM_P2
2023/05/28 00:01:32;;;;;;;14.25;5.00;;;13.60;84.50;;;;;;5097932;28;20020;-74
2023/05/28 00:03:58;;;;;;;12.15;5.10;;;13.50;84.70;;;;;;5099800;28;20100;-74
2023/05/28 00:06:23;;;;;;;13.23;4.60;;;13.50;85.40;;;;;;5098898;28;20035;-74
2023/05/28 00:08:52;;;;;;;12.02;4.95;;;13.40;85.20;;;;;;5078169;28;20116;-74
2023/05/28 00:11:17;;;;;;;11.55;4.72;;;13.50;85.10;;;;;;5079348;28;20024;-74
2023/05/28 00:13:43;;;;;;;11.00;5.40;;;13.50;85.10;;;;;;5079092;28;20028;-74
2023/05/28 00:16:09;;;;;;;13.02;5.38;;;13.40;85.10;;;;;;5079370;28;20020;-73
2023/05/28 00:18:34;;;;;;;17.27;5.85;;;13.40;85.60;;;;;;5074371;28;20274;-74
2023/05/28 00:21:00;;;;;;;13.70;4.90;;;13.30;85.70;;;;;;5099388;28;20032;-74
2023/05/28 00:23:26;;;;;;;12.38;4.95;;;13.30;86.00;;;;;;5098203;28;20036;-74
2023/05/28 00:25:51;;;;;;;12.85;4.78;;;13.30;85.50;;;;;;5098622;28;20028;-74
2023/05/28 00:28:17;;;;;;;11.90;4.63;;;13.30;85.70;;;;;;5099241;28;20028;-75
2023/05/28 00:30:42;;;;;;;13.65;4.45;;;13.30;85.30;;;;;;5099120;28;20020;-74
2023/05/28 00:33:08;;;;;;;13.90;5.75;;;13.30;85.40;;;;;;5093980;28;20028;-73
2023/05/28 00:35:33;;;;;;;10.73;4.72;;;13.30;85.90;;;;;;5097697;28;20028;-74
2023/05/28 00:37:59;;;;;;;13.68;4.43;;;13.30;85.60;;;;;;5080252;28;20119;-74
2023/05/28 00:40:25;;;;;;;11.52;4.78;;;13.30;85.60;;;;;;5097891;28;20063;-73
2023/05/28 00:42:51;;;;;;;14.68;5.30;;;13.20;85.70;;;;;;5098996;28;20027;-73
2023/05/28 00:45:17;;;;;;;9.95;4.78;;;13.20;85.80;;;;;;5098714;28;20022;-73
2023/05/28 00:47:43;;;;;;;14.00;5.03;;;13.20;85.60;;;;;;5098929;28;20024;-73
2023/05/28 00:50:12;;;;;;;11.80;4.38;;;13.20;85.20;;;;;;5095201;28;20039;-73
2023/05/28 00:52:39;;;;;;;13.38;4.93;;;13.30;85.30;;;;;;5084922;28;20013;-73
2023/05/28 00:55:15;;;;;;;12.48;5.10;;;13.30;84.80;;;;;;5097439;28;20076;-73
2023/05/28 00:57:41;;;;;;;13.52;5.22;;;13.30;85.10;;;;;;5098642;28;20020;-72
2023/05/28 01:00:08;;;;;;;12.68;4.95;;;13.30;84.50;;;;;;5098196;28;20046;-73
2023/05/28 01:02:34;;;;;;;16.73;5.82;;;13.30;84.80;;;;;;5098481;28;20028;-73
2023/05/28 01:05:00;;;;;;;11.13;5.00;;;13.30;84.50;;;;;;5079660;28;20036;-73
2023/05/28 01:07:26;;;;;;;14.70;4.97;;;13.30;84.20;;;;;;5096716;28;20093;-74
2023/05/28 01:09:52;;;;;;;11.13;5.00;;;13.40;84.20;;;;;;5097182;28;20025;-73
2023/05/28 01:12:18;;;;;;;12.85;4.70;;;13.20;84.60;;;;;;5098545;28;20031;-73
2023/05/28 01:14:44;;;;;;;12.98;4.95;;;13.20;84.40;;;;;;5098276;28;20028;-73
2023/05/28 01:17:11;;;;;;;13.07;5.00;;;13.10;84.90;;;;;;5080439;28;20028;-73
2023/05/28 01:19:37;;;;;;;12.65;5.50;;;12.80;88.00;;;;;;5098167;28;20020;-73
2023/05/28 01:22:04;;;;;;;12.80;5.00;;;12.30;89.40;;;;;;5097359;28;20038;-73
2023/05/28 01:24:35;;;;;;;10.90;5.38;;;11.90;90.50;;;;;;5086246;28;20040;-73
2023/05/28 01:27:02;;;;;;;14.15;5.40;;;11.60;91.30;;;;;;5077926;28;20017;-73
2023/05/28 01:29:27;;;;;;;14.95;5.50;;;11.30;92.50;;;;;;5077830;28;20016;-73
2023/05/28 01:31:53;;;;;;;14.80;5.50;;;11.10;93.10;;;;;;5077716;28;20367;-73
2023/05/28 01:34:18;;;;;;;15.48;5.68;;;11.00;94.10;;;;;;5077623;28;20028;-73
2023/05/28 01:36:59;;;;;;;14.38;5.78;;;10.80;94.40;;;;;;5077632;28;20040;-73
2023/05/28 01:39:28;;;;;;;14.57;6.53;;;10.60;95.00;;;;;;5076716;28;20037;-73
2023/05/28 01:41:54;;;;;;;10.98;4.93;;;10.50;95.40;;;;;;5077500;28;20025;-74
2023/05/28 01:44:20;;;;;;;12.80;6.00;;;10.40;95.70;;;;;;5077639;28;20024;-73
2023/05/28 01:46:47;;;;;;;19.52;7.35;;;10.30;96.30;;;;;;5081628;28;20043;-73
2023/05/28 01:49:13;;;;;;;19.02;9.10;;;10.10;96.50;;;;;;5079801;28;20062;-73
2023/05/28 01:51:39;;;;;;;17.10;8.18;;;10.00;96.70;;;;;;5097639;28;20418;-74
2023/05/28 01:54:04;;;;;;;18.17;7.55;;;9.90;96.90;;;;;;5096271;28;20028;-73
2023/05/28 01:56:30;;;;;;;22.85;10.23;;;9.70;97.20;;;;;;5078958;28;20050;-73
2023/05/28 01:58:56;;;;;;;33.33;16.70;;;9.60;97.20;;;;;;5097460;28;20024;-74
2023/05/28 02:01:32;;;;;;;54.63;26.33;;;9.60;97.40;;;;;;5096527;28;20020;-73
2023/05/28 02:03:59;;;;;;;85.40;40.85;;;9.40;97.40;;;;;;5097433;28;20020;-73
2023/05/28 02:06:30;;;;;;;122.72;61.20;;;9.30;97.50;;;;;;5097265;28;20070;-73
2023/05/28 02:08:56;;;;;;;107.68;53.97;;;9.20;97.60;;;;;;5096113;28;20102;-73
2023/05/28 02:11:23;;;;;;;84.65;44.65;;;9.20;97.60;;;;;;5096411;28;20441;-73
2023/05/28 02:13:48;;;;;;;63.45;34.53;;;9.20;97.70;;;;;;5096292;28;20032;-73
2023/05/28 02:16:17;;;;;;;50.08;27.35;;;9.20;97.70;;;;;;5096461;28;20066;-72
2023/05/28 02:18:44;;;;;;;42.65;22.42;;;9.20;97.70;;;;;;5097021;28;20067;-73
2023/05/28 02:21:10;;;;;;;34.88;16.70;;;9.30;97.70;;;;;;5097126;28;20095;-74
2023/05/28 02:23:42;;;;;;;29.05;15.98;;;9.30;97.80;;;;;;5095811;28;20409;-75
2023/05/28 02:26:07;;;;;;;24.58;11.55;;;9.40;97.60;;;;;;5096345;28;20023;-74
2023/05/28 02:28:33;;;;;;;17.45;8.18;;;9.40;97.60;;;;;;5095036;28;20099;-74
2023/05/28 02:30:59;;;;;;;15.45;7.47;;;9.40;97.20;;;;;;5076574;28;20025;-74
2023/05/28 02:33:25;;;;;;;17.52;8.27;;;9.40;97.20;;;;;;5076521;28;20032;-74
2023/05/28 02:35:50;;;;;;;12.40;5.78;;;9.50;97.00;;;;;;5076394;28;20097;-74
2023/05/28 02:38:16;;;;;;;13.73;5.97;;;9.40;97.20;;;;;;5076416;28;20618;-74
2023/05/28 02:40:42;;;;;;;16.08;5.43;;;9.40;97.00;;;;;;5075205;28;20051;-74
2023/05/28 02:43:07;;;;;;;17.38;6.75;;;9.50;96.70;;;;;;5076082;28;20039;-74
2023/05/28 02:45:34;;;;;;;12.38;5.28;;;9.50;96.60;;;;;;5064002;28;20024;-74
2023/05/28 02:47:59;;;;;;;17.80;6.03;;;9.50;96.50;;;;;;5078664;28;20028;-74
2023/05/28 02:50:25;;;;;;;13.82;5.75;;;9.60;96.40;;;;;;5096501;28;20038;-74
2023/05/28 02:52:50;;;;;;;13.57;4.90;;;9.60;96.20;;;;;;5096599;28;20028;-73
2023/05/28 02:55:16;;;;;;;12.60;5.18;;;9.60;96.10;;;;;;5095286;28;20059;-74
2023/05/28 02:57:41;;;;;;;15.20;5.43;;;9.60;96.10;;;;;;5078854;28;20036;-74
2023/05/28 03:00:10;;;;;;;12.27;5.97;;;9.50;96.20;;;;;;5076252;28;20028;-74
2023/05/28 03:02:36;;;;;;;14.30;5.25;;;9.50;96.30;;;;;;5086714;28;20032;-74
2023/05/28 03:05:01;;;;;;;13.77;5.03;;;9.40;96.60;;;;;;5096389;28;20291;-74
2023/05/28 03:07:27;;;;;;;14.90;5.90;;;9.40;96.70;;;;;;5096432;28;20016;-74
2023/05/28 03:09:52;;;;;;;14.90;5.82;;;9.20;96.90;;;;;;5094457;28;20028;-75
2023/05/28 03:12:18;;;;;;;12.05;5.80;;;9.20;97.10;;;;;;5095337;28;20024;-74
2023/05/28 03:14:43;;;;;;;11.98;5.15;;;9.10;97.20;;;;;;5096124;28;20032;-74
2023/05/28 03:17:09;;;;;;;12.32;5.35;;;9.00;97.40;;;;;;5096248;28;20106;-73
2023/05/28 03:19:36;;;;;;;12.98;5.57;;;9.00;97.50;;;;;;5095469;28;20024;-74
2023/05/28 03:22:02;;;;;;;13.75;5.32;;;9.00;97.30;;;;;;5095415;28;20028;-73
2023/05/28 03:24:27;;;;;;;17.52;5.53;;;9.00;97.40;;;;;;5094903;28;20448;-74
2023/05/28 03:26:53;;;;;;;12.10;5.30;;;9.00;97.30;;;;;;5095246;28;20443;-74
2023/05/28 03:29:19;;;;;;;15.02;6.03;;;8.90;97.50;;;;;;5078431;28;20020;-74
2023/05/28 03:31:46;;;;;;;12.25;5.05;;;8.80;97.70;;;;;;5096041;28;20046;-74
2023/05/28 03:34:12;;;;;;;11.10;4.78;;;8.80;97.70;;;;;;5095254;28;20421;-74
2023/05/28 03:36:40;;;;;;;14.75;6.15;;;8.70;97.90;;;;;;5094947;28;20054;-74
2023/05/28 03:39:07;;;;;;;11.43;6.03;;;8.80;97.90;;;;;;5094655;28;20378;-74
2023/05/28 03:41:33;;;;;;;12.30;5.25;;;8.80;97.70;;;;;;5095918;28;20095;-74
2023/05/28 03:43:59;;;;;;;14.13;6.13;;;8.90;97.80;;;;;;5095299;28;20028;-74
2023/05/28 03:46:24;;;;;;;16.00;5.78;;;8.90;97.60;;;;;;5095299;28;20097;-74
2023/05/28 03:48:50;;;;;;;16.98;6.07;;;9.00;97.60;;;;;;5095814;28;20518;-73
2023/05/28 03:51:16;;;;;;;17.92;6.32;;;9.10;97.70;;;;;;5094600;28;20016;-74
2023/05/28 03:53:41;;;;;;;14.07;5.85;;;9.10;97.40;;;;;;5094738;28;20808;-74
2023/05/28 03:56:07;;;;;;;13.95;5.10;;;9.20;97.20;;;;;;5077707;28;20032;-74
2023/05/28 03:58:32;;;;;;;11.80;5.30;;;9.20;97.10;;;;;;5095756;28;20405;-74
2023/05/28 04:00:59;;;;;;;13.30;4.88;;;9.30;97.10;;;;;;5095809;28;20391;-74
2023/05/28 04:03:25;;;;;;;11.43;5.47;;;9.20;97.30;;;;;;5095584;28;20157;-74
2023/05/28 04:05:52;;;;;;;14.10;6.03;;;9.20;97.60;;;;;;5095061;28;20107;-74
2023/05/28 04:08:18;;;;;;;14.60;5.78;;;9.20;97.70;;;;;;5077062;28;20020;-74
2023/05/28 04:10:43;;;;;;;15.45;5.97;;;9.30;97.90;;;;;;5094346;28;20030;-74
2023/05/28 04:13:11;;;;;;;13.30;5.55;;;9.50;97.50;;;;;;5095706;28;20028;-74
2023/05/28 04:15:37;;;;;;;13.73;6.15;;;9.60;97.40;;;;;;5095655;28;20154;-74
2023/05/28 04:18:03;;;;;;;11.23;5.60;;;9.70;97.50;;;;;;5095837;28;20055;-75
2023/05/28 04:20:29;;;;;;;12.30;5.57;;;9.60;97.60;;;;;;5094773;28;20099;-74
2023/05/28 04:22:54;;;;;;;13.73;6.47;;;9.40;97.80;;;;;;5095653;28;20020;-74
2023/05/28 04:25:20;;;;;;;12.60;6.43;;;9.30;97.90;;;;;;5093578;28;20042;-74
2023/05/28 04:27:46;;;;;;;14.30;6.85;;;9.30;97.80;;;;;;5095586;28;20027;-74
2023/05/28 04:30:12;;;;;;;13.35;5.45;;;9.30;97.50;;;;;;5095696;28;20027;-75
2023/05/28 04:32:41;;;;;;;12.68;5.72;;;9.30;98.00;;;;;;5075370;28;20024;-75
2023/05/28 04:35:10;;;;;;;10.93;5.32;;;9.30;98.00;;;;;;5077829;28;20099;-74
2023/05/28 04:37:39;;;;;;;13.48;6.15;;;9.40;97.90;;;;;;5078667;28;20047;-74
2023/05/28 04:40:11;;;;;;;12.52;4.85;;;9.50;97.90;;;;;;5078957;28;20025;-74
2023/05/28 04:42:37;;;;;;;11.50;5.15;;;9.60;98.00;;;;;;5099013;28;20028;-74
2023/05/28 04:45:04;;;;;;;14.25;5.35;;;9.60;98.00;;;;;;5098320;28;20405;-74
2023/05/28 04:47:30;;;;;;;13.82;5.75;;;9.70;98.00;;;;;;5060929;28;20044;-74
2023/05/28 04:49:57;;;;;;;13.60;5.32;;;9.80;97.90;;;;;;5078595;28;20064;-74
2023/05/28 04:52:23;;;;;;;12.60;5.20;;;9.90;98.00;;;;;;5078398;28;20051;-74
2023/05/28 04:54:49;;;;;;;13.93;6.07;;;10.00;98.00;;;;;;5077380;28;20029;-74
2023/05/28 04:57:15;;;;;;;12.07;4.88;;;10.10;97.80;;;;;;5068196;28;20051;-74
2023/05/28 04:59:41;;;;;;;13.05;5.00;;;10.20;97.80;;;;;;5080662;28;20122;-74
2023/05/28 05:02:07;;;;;;;17.00;6.82;;;10.20;97.50;;;;;;5097936;28;20432;-74
2023/05/28 05:04:35;;;;;;;11.70;5.32;;;10.30;97.60;;;;;;5080370;28;20298;-73
2023/05/28 05:07:01;;;;;;;18.85;8.85;;;10.40;97.70;;;;;;5098524;28;20028;-73
2023/05/28 05:09:27;;;;;;;12.57;5.70;;;10.50;97.70;;;;;;5097426;28;20103;-73
2023/05/28 05:11:52;;;;;;;10.68;5.22;;;10.50;97.40;;;;;;5098391;28;20028;-73
2023/05/28 05:14:18;;;;;;;12.65;5.82;;;10.60;97.00;;;;;;5097667;28;20432;-74
2023/05/28 05:16:43;;;;;;;13.55;5.88;;;10.80;96.20;;;;;;5097677;28;20371;-75
2023/05/28 05:19:09;;;;;;;14.40;6.03;;;10.90;95.90;;;;;;5096340;28;20344;-75
2023/05/28 05:21:35;;;;;;;13.70;5.60;;;11.00;94.60;;;;;;5080206;28;20028;-74
2023/05/28 05:24:01;;;;;;;13.38;5.53;;;11.10;94.30;;;;;;5096943;28;20024;-74
2023/05/28 05:26:26;;;;;;;15.25;6.03;;;11.20;94.20;;;;;;5098207;28;20115;-75
2023/05/28 05:28:52;;;;;;;14.45;5.40;;;11.40;94.10;;;;;;5098062;28;20384;-74
2023/05/28 05:31:17;;;;;;;17.52;5.05;;;11.70;94.00;;;;;;5080158;28;20047;-74
2023/05/28 05:33:43;;;;;;;13.65;5.82;;;12.00;93.10;;;;;;5095774;28;20449;-74
2023/05/28 05:36:10;;;;;;;16.33;5.50;;;12.50;91.00;;;;;;5097568;28;20051;-74
2023/05/28 05:38:37;;;;;;;16.50;5.85;;;13.00;89.20;;;;;;5078866;28;20404;-75
2023/05/28 05:41:03;;;;;;;14.30;5.68;;;13.40;87.60;;;;;;5097088;28;20035;-74
2023/05/28 05:43:29;;;;;;;13.82;5.53;;;13.70;86.70;;;;;;5095448;28;20363;-74
2023/05/28 05:45:54;;;;;;;16.50;5.68;;;14.00;86.20;;;;;;5108742;28;20038;-74
2023/05/28 05:48:20;;;;;;;11.95;5.28;;;14.20;85.10;;;;;;5097605;28;20472;-75
2023/05/28 05:50:50;;;;;;;12.07;4.63;;;14.40;84.80;;;;;;5097346;28;20406;-74
2023/05/28 05:53:16;;;;;;;12.93;5.93;;;14.50;85.00;;;;;;5097533;28;20024;-74
2023/05/28 05:55:41;;;;;;;13.68;4.63;;;14.70;84.00;;;;;;5096290;28;20034;-74
2023/05/28 05:58:07;;;;;;;13.50;4.80;;;14.80;83.20;;;;;;5083276;28;20024;-74
2023/05/28 06:00:33;;;;;;;12.55;5.00;;;14.90;83.60;;;;;;5096566;28;20024;-74
2023/05/28 06:02:58;;;;;;;12.25;5.20;;;15.10;83.40;;;;;;5096579;28;20456;-74
2023/05/28 06:05:24;;;;;;;14.57;5.63;;;15.10;83.90;;;;;;5078289;28;20028;-74
2023/05/28 06:07:49;;;;;;;12.55;5.10;;;15.30;82.50;;;;;;5097378;28;20028;-74
2023/05/28 06:10:15;;;;;;;12.35;4.97;;;15.40;81.90;;;;;;5096044;28;20020;-74
2023/05/28 06:12:40;;;;;;;13.25;5.50;;;15.50;81.70;;;;;;5097075;28;20030;-74
2023/05/28 06:15:06;;;;;;;14.98;5.35;;;15.60;81.60;;;;;;5079936;28;20422;-74
2023/05/28 06:17:32;;;;;;;11.32;4.38;;;15.70;81.20;;;;;;5059011;28;20035;-74
2023/05/28 06:20:00;;;;;;;13.63;5.28;;;15.80;81.00;;;;;;5092388;28;20032;-75
2023/05/28 06:22:26;;;;;;;14.13;5.05;;;15.90;81.40;;;;;;5096955;28;20020;-75
2023/05/28 06:24:52;;;;;;;11.45;5.10;;;16.00;80.60;;;;;;5095617;28;20027;-75
2023/05/28 06:27:18;;;;;;;13.13;5.25;;;16.10;81.30;;;;;;5097048;28;20024;-75
2023/05/28 06:29:44;;;;;;;13.05;5.05;;;16.30;80.00;;;;;;5094415;28;20026;-74
2023/05/28 06:32:09;;;;;;;10.40;5.10;;;16.40;80.00;;;;;;5084419;28;20095;-74
2023/05/28 06:34:35;;;;;;;12.77;4.65;;;16.50;80.40;;;;;;5076449;28;20290;-74
2023/05/28 06:37:01;;;;;;;12.25;5.40;;;16.60;78.10;;;;;;5076198;28;20044;-74
2023/05/28 06:39:28;;;;;;;15.00;5.65;;;16.60;77.70;;;;;;5079517;28;20119;-74
2023/05/28 06:41:53;;;;;;;15.13;5.35;;;16.70;77.90;;;;;;5065165;28;20521;-74
2023/05/28 06:44:19;;;;;;;15.55;5.07;;;16.70;77.60;;;;;;5076331;28;20024;-75
2023/05/28 06:46:45;;;;;;;16.15;5.45;;;16.80;78.20;;;;;;5076245;28;20042;-74
2023/05/28 06:49:10;;;;;;;11.75;4.97;;;16.90;77.80;;;;;;5076162;28;20060;-74
2023/05/28 06:51:36;;;;;;;13.45;4.45;;;17.00;77.90;;;;;;5076294;28;20431;-74
2023/05/28 06:54:02;;;;;;;11.43;5.13;;;17.20;77.80;;;;;;5074868;28;20096;-74
2023/05/28 06:56:28;;;;;;;12.80;4.68;;;17.40;77.40;;;;;;5090144;28;20356;-74
2023/05/28 06:58:54;;;;;;;11.13;4.43;;;17.50;77.30;;;;;;5083099;28;20057;-74
2023/05/28 07:01:20;;;;;;;13.15;4.85;;;17.60;76.90;;;;;;5093152;28;20016;-74
2023/05/28 07:03:48;;;;;;;13.90;4.95;;;17.80;77.20;;;;;;5075926;28;20035;-74
2023/05/28 07:06:15;;;;;;;12.60;4.30;;;18.00;75.60;;;;;;5076488;28;20021;-74
2023/05/28 07:08:44;;;;;;;11.77;4.85;;;18.00;76.50;;;;;;5077618;28;20040;-74
2023/05/28 07:11:13;;;;;;;11.18;4.65;;;18.10;76.70;;;;;;5075883;28;20075;-73
2023/05/28 07:13:40;;;;;;;10.65;4.53;;;18.30;75.30;;;;;;5075817;28;20025;-75
2023/05/28 07:16:06;;;;;;;12.02;4.63;;;18.50;76.00;;;;;;5078875;28;20452;-75
2023/05/28 07:18:32;;;;;;;10.38;4.22;;;18.70;73.90;;;;;;5087371;28;20217;-74
2023/05/28 07:20:58;;;;;;;15.00;5.18;;;18.90;74.30;;;;;;5096004;28;20031;-74
2023/05/28 07:23:24;;;;;;;13.23;4.90;;;19.00;74.00;;;;;;5075737;28;20074;-75
2023/05/28 07:25:49;;;;;;;11.05;4.28;;;19.00;73.00;;;;;;5086575;28;20016;-74
2023/05/28 07:28:15;;;;;;;12.25;4.88;;;19.70;73.70;;;;;;5096009;28;20020;-74
2023/05/28 07:30:41;;;;;;;13.95;4.85;;;20.30;71.80;;;;;;5094192;28;20420;-75
2023/05/28 07:33:07;;;;;;;13.07;5.00;;;20.90;68.90;;;;;;5063594;28;20070;-74
2023/05/28 07:35:33;;;;;;;12.93;4.47;;;21.40;68.30;;;;;;5095744;28;20056;-75
2023/05/28 07:37:58;;;;;;;11.68;4.63;;;22.10;67.60;;;;;;5094571;28;20028;-75
2023/05/28 07:40:24;;;;;;;11.73;5.00;;;23.00;64.40;;;;;;5094720;28;20025;-76
2023/05/28 07:42:50;;;;;;;10.38;3.72;;;23.20;63.10;;;;;;5095723;28;20051;-74
2023/05/28 07:45:15;;;;;;;13.60;4.40;;;23.50;64.10;;;;;;5093416;28;20119;-75
2023/05/28 07:47:41;;;;;;;9.82;4.65;;;23.90;61.00;;;;;;5094910;28;20032;-74
2023/05/28 07:50:07;;;;;;;9.95;4.15;;;24.00;59.60;;;;;;5093359;28;20036;-74
2023/05/28 07:52:33;;;;;;;9.65;4.20;;;23.90;60.30;;;;;;5095649;28;20083;-74
2023/05/28 07:54:59;;;;;;;13.70;4.32;;;24.10;61.00;;;;;;5092309;28;20364;-74
2023/05/28 07:57:24;;;;;;;9.45;4.20;;;24.50;59.60;;;;;;5077930;28;20020;-75
2023/05/28 07:59:50;;;;;;;9.40;4.00;;;24.40;59.60;;;;;;5095713;28;20059;-74
2023/05/28 08:02:16;;;;;;;10.63;4.00;;;24.60;58.80;;;;;;5094139;28;20440;-75
2023/05/28 08:04:42;;;;;;;9.80;4.03;;;24.60;58.50;;;;;;5094356;28;20036;-73
2023/05/28 08:07:09;;;;;;;12.60;4.13;;;24.90;58.00;;;;;;5091270;28;20379;-74
2023/05/28 08:09:35;;;;;;;12.35;4.40;;;25.10;56.80;;;;;;5095214;28;20020;-73
2023/05/28 08:12:01;;;;;;;12.50;4.05;;;25.20;57.60;;;;;;5099564;28;20024;-73
2023/05/28 08:14:28;;;;;;;9.07;4.22;;;25.30;58.00;;;;;;5099428;28;20027;-75
2023/05/28 08:16:54;;;;;;;12.38;4.47;;;25.60;56.60;;;;;;5096438;28;20034;-73
2023/05/28 08:19:19;;;;;;;11.65;3.95;;;25.90;56.60;;;;;;5087408;28;20117;-75
2023/05/28 08:21:45;;;;;;;10.55;4.18;;;26.30;56.50;;;;;;5093844;28;20432;-74
2023/05/28 08:24:11;;;;;;;9.32;3.95;;;26.20;54.80;;;;;;5086104;28;20064;-75
2023/05/28 08:26:37;;;;;;;13.35;4.45;;;26.00;55.90;;;;;;5094351;28;20028;-75
2023/05/28 08:29:04;;;;;;;13.68;4.38;;;25.20;55.90;;;;;;5092436;28;20024;-74
2023/05/28 08:31:33;;;;;;;11.63;3.95;;;25.40;58.40;;;;;;5099362;28;20095;-74
2023/05/28 08:34:02;;;;;;;12.00;4.30;;;25.60;55.20;;;;;;5086783;28;20103;-74
2023/05/28 08:36:27;;;;;;;13.38;4.90;;;25.40;56.00;;;;;;5085585;28;20041;-74
2023/05/28 08:38:53;;;;;;;13.13;4.45;;;25.60;57.00;;;;;;5077382;28;20020;-74
2023/05/28 08:41:19;;;;;;;11.27;4.50;;;25.70;56.30;;;;;;5078731;28;20036;-75
2023/05/28 08:43:45;;;;;;;10.93;4.72;;;25.40;58.50;;;;;;5082496;28;20049;-74
2023/05/28 08:46:11;;;;;;;12.93;5.00;;;25.80;57.70;;;;;;5098799;28;20036;-74
2023/05/28 08:48:40;;;;;;;11.75;5.30;;;25.30;61.60;;;;;;5098852;28;20066;-74
2023/05/28 08:51:06;;;;;;;12.55;4.90;;;24.80;64.40;;;;;;5098812;28;20043;-74
2023/05/28 08:53:39;;;;;;;9.75;5.10;;;24.70;58.80;;;;;;5085048;28;20020;-74
2023/05/28 08:56:05;;;;;;;14.30;5.53;;;25.20;64.10;;;;;;5083854;28;20039;-74
2023/05/28 08:58:30;;;;;;;12.23;5.80;;;25.80;63.90;;;;;;5084927;28;20070;-74
2023/05/28 09:00:56;;;;;;;11.20;5.10;;;26.30;62.60;;;;;;5091628;28;20324;-73
2023/05/28 09:03:22;;;;;;;10.65;4.60;;;26.90;61.50;;;;;;5092812;28;20321;-73
2023/05/28 09:05:47;;;;;;;13.50;5.13;;;26.60;61.10;;;;;;5097949;28;20035;-73
2023/05/28 09:08:13;;;;;;;11.25;5.13;;;26.20;62.00;;;;;;5096486;28;20047;-73
2023/05/28 09:10:40;;;;;;;10.63;4.70;;;25.50;62.30;;;;;;5097311;28;20017;-73
2023/05/28 09:13:06;;;;;;;13.35;4.88;;;25.10;63.40;;;;;;5094533;28;20028;-73
2023/05/28 09:15:37;;;;;;;11.15;5.18;;;25.00;63.70;;;;;;5092589;28;20103;-73
2023/05/28 09:18:04;;;;;;;13.52;5.25;;;25.20;64.10;;;;;;5085099;28;20030;-75
2023/05/28 09:20:30;;;;;;;11.95;4.88;;;25.00;63.00;;;;;;5094230;28;20025;-74
2023/05/28 09:23:06;;;;;;;11.75;5.53;;;25.30;63.20;;;;;;5075737;28;20498;-73
2023/05/28 09:25:36;;;;;;;9.43;5.13;;;25.10;62.80;;;;;;5076784;28;20035;-72
2023/05/28 09:28:02;;;;;;;10.75;5.10;;;25.20;62.50;;;;;;5096735;28;20269;-73
2023/05/28 09:30:29;;;;;;;11.77;5.07;;;24.70;63.50;;;;;;5086481;28;20032;-73
2023/05/28 09:33:07;;;;;;;10.73;4.70;;;24.20;63.70;;;;;;5092926;28;20024;-73
2023/05/28 09:35:33;;;;;;;10.77;4.85;;;24.40;64.70;;;;;;5095200;28;20032;-73
2023/05/28 09:38:00;;;;;;;11.98;5.28;;;25.20;64.50;;;;;;5093467;28;20102;-73
2023/05/28 09:40:26;;;;;;;11.60;5.25;;;25.80;62.50;;;;;;5094349;28;20469;-73
2023/05/28 09:42:52;;;;;;;13.73;4.82;;;25.90;60.20;;;;;;5084683;28;20115;-73
2023/05/28 09:45:24;;;;;;;10.45;5.07;;;25.40;61.20;;;;;;5081772;28;20412;-74
2023/05/28 09:47:50;;;;;;;12.18;5.70;;;25.90;61.90;;;;;;5087571;28;20198;-75
2023/05/28 09:50:22;;;;;;;13.13;5.20;;;26.10;60.70;;;;;;5093391;28;20099;-75
2023/05/28 09:52:48;;;;;;;11.80;4.30;;;25.40;62.40;;;;;;5086018;28;20042;-75
2023/05/28 09:55:18;;;;;;;12.15;4.93;;;25.20;62.40;;;;;;5085639;28;20021;-76
2023/05/28 09:58:06;;;;;;;12.52;5.00;;;26.20;63.40;;;;;;5073551;28;20413;-75
2023/05/28 10:00:39;;;;;;;11.32;4.50;;;26.50;60.50;;;;;;5087584;28;20302;-76
2023/05/28 10:03:11;;;;;;;8.82;4.53;;;27.10;58.80;;;;;;5061445;28;20082;-75
2023/05/28 10:05:42;;;;;;;11.82;5.20;;;27.40;59.10;;;;;;5078643;28;20055;-74
2023/05/28 10:08:10;;;;;;;12.23;4.68;;;26.00;59.60;;;;;;5092482;28;20023;-75
2023/05/28 10:10:39;;;;;;;16.00;5.38;;;26.10;61.90;;;;;;5087956;28;20020;-75
2023/05/28 10:13:07;;;;;;;12.63;5.00;;;26.70;59.70;;;;;;5086604;28;20054;-74
2023/05/28 10:15:34;;;;;;;10.48;4.85;;;26.50;59.20;;;;;;5076844;28;20020;-75
2023/05/28 10:18:00;;;;;;;10.55;5.20;;;26.30;61.10;;;;;;5094296;28;20028;-75
2023/05/28 10:20:25;;;;;;;11.23;4.93;;;26.00;61.60;;;;;;5094666;28;20028;-74
2023/05/28 10:22:51;;;;;;;11.00;5.07;;;25.80;60.10;;;;;;5089489;28;20020;-74
2023/05/28 10:25:17;;;;;;;11.50;5.10;;;26.00;61.50;;;;;;5094539;28;20024;-75
2023/05/28 10:27:48;;;;;;;13.38;5.05;;;26.20;59.90;;;;;;5085411;28;20099;-74
2023/05/28 10:30:36;;;;;;;13.23;5.05;;;26.10;59.90;;;;;;5077955;28;20099;-75
2023/05/28 10:33:07;;;;;;;11.60;4.72;;;26.20;59.80;;;;;;5075637;28;20048;-75
2023/05/28 10:35:51;;;;;;;16.50;5.72;;;25.90;61.20;;;;;;5058583;28;20036;-75
2023/05/28 10:38:16;;;;;;;11.85;5.07;;;26.50;60.20;;;;;;5085839;28;20024;-75
2023/05/28 10:40:42;;;;;;;12.02;5.15;;;26.40;59.00;;;;;;5077118;28;20080;-75
2023/05/28 10:43:39;;;;;;;11.95;5.47;;;26.10;59.00;;;;;;5096644;28;20048;-75
2023/05/28 10:46:24;;;;;;;12.80;4.72;;;25.20;60.30;;;;;;5087005;28;20064;-75
2023/05/28 10:49:08;;;;;;;12.32;5.25;;;25.40;61.10;;;;;;5063581;28;20059;-75
2023/05/28 10:52:02;;;;;;;10.48;4.93;;;26.00;59.40;;;;;;5084063;28;20020;-75
2023/05/28 10:54:37;;;;;;;;;;;26.30;59.80;;;;;;5084133;28;20108;-76
2023/05/28 10:57:12;;;;;;;13.00;5.38;;;25.70;60.40;;;;;;5091647;28;20212;-76
2023/05/28 10:59:43;;;;;;;12.20;5.00;;;25.40;60.60;;;;;;5087905;28;20036;-76
2023/05/28 11:02:11;;;;;;;11.25;4.72;;;24.90;62.90;;;;;;5078091;28;20081;-75
2023/05/28 11:04:37;;;;;;;13.07;4.53;;;25.10;62.90;;;;;;5084086;28;20043;-75
2023/05/28 11:07:04;;;;;;;10.43;4.55;;;25.80;62.40;;;;;;5089621;28;20019;-74
2023/05/28 11:09:30;;;;;;;15.77;6.75;;;26.50;59.00;;;;;;5093495;28;20415;-74
2023/05/28 11:12:01;;;;;;;12.93;5.13;;;27.10;57.50;;;;;;5092469;28;20471;-74
2023/05/28 11:14:37;;;;;;;13.90;7.80;;;26.80;58.00;;;;;;5085932;28;20028;-74
2023/05/28 11:17:12;;;;;;;10.55;5.00;;;26.90;58.40;;;;;;5077089;28;20028;-74
2023/05/28 11:19:44;;;;;;;43.95;31.05;;;26.80;59.10;;;;;;5094271;28;20692;-74
2023/05/28 11:22:13;;;;;;;11.80;6.68;;;26.10;60.50;;;;;;5096006;28;20095;-75
2023/05/28 11:24:55;;;;;;;12.43;5.15;;;25.70;60.40;;;;;;5077985;28;20028;-74
2023/05/28 11:27:25;;;;;;;12.75;5.05;;;25.40;60.80;;;;;;5079972;28;20030;-74
2023/05/28 11:29:53;;;;;;;8.95;4.60;;;25.00;61.90;;;;;;5088352;28;20035;-74
2023/05/28 11:32:21;;;;;;;13.02;4.78;;;24.70;61.30;;;;;;5088027;28;20024;-75
2023/05/28 11:34:51;;;;;;;11.40;5.18;;;24.70;62.80;;;;;;5081892;28;20037;-75
2023/05/28 11:37:24;;;;;;;15.35;5.43;;;25.30;61.00;;;;;;5081655;28;20048;-75
2023/05/28 11:39:50;;;;;;;12.57;4.70;;;25.20;61.60;;;;;;5083778;28;20425;-75
2023/05/28 11:42:19;;;;;;;12.57;5.07;;;25.30;61.20;;;;;;5075995;28;20028;-75
2023/05/28 11:44:45;;;;;;;14.20;5.05;;;25.50;59.00;;;;;;5084420;28;20052;-74
2023/05/28 11:47:11;;;;;;;12.38;5.30;;;25.70;58.60;;;;;;5098560;28;20098;-74
2023/05/28 11:49:37;;;;;;;10.05;5.00;;;25.80;61.20;;;;;;5097843;28;20032;-75
2023/05/28 11:52:03;;;;;;;10.48;4.68;;;25.60;58.50;;;;;;5097331;28;20020;-75
2023/05/28 11:54:28;;;;;;;11.30;4.60;;;25.90;57.50;;;;;;5098257;28;20036;-75
2023/05/28 11:56:54;;;;;;;10.25;4.97;;;25.80;58.40;;;;;;5099792;28;20424;-74
2023/05/28 11:59:26;;;;;;;10.00;4.63;;;25.90;60.10;;;;;;5097187;28;20073;-74
2023/05/28 12:01:52;;;;;;;14.43;5.20;;;26.10;59.10;;;;;;5097120;28;20130;-74
2023/05/28 12:04:25;;;;;;;10.00;4.47;;;26.40;59.10;;;;;;5098521;28;20036;-74
2023/05/28 12:06:52;;;;;;;11.90;4.72;;;26.40;56.60;;;;;;5099756;28;20016;-76
2023/05/28 12:09:22;;;;;;;10.25;4.60;;;26.50;56.90;;;;;;5096479;28;20036;-76
2023/05/28 12:12:10;;;;;;;10.98;4.50;;;26.70;57.70;;;;;;5097672;28;20024;-75
2023/05/28 12:14:35;;;;;;;8.60;4.10;;;26.60;57.60;;;;;;5097397;28;20064;-76
2023/05/28 12:17:13;;;;;;;16.27;7.78;;;26.10;57.70;;;;;;5096394;28;20059;-76
2023/05/28 12:19:38;;;;;;;9.27;4.38;;;26.20;57.40;;;;;;5087109;28;20409;-76
2023/05/28 12:22:14;;;;;;;10.98;4.75;;;26.20;58.20;;;;;;5079291;28;20032;-75
2023/05/28 12:24:51;;;;;;;11.52;4.50;;;26.60;56.50;;;;;;5092152;28;20024;-75
2023/05/28 12:27:17;;;;;;;10.45;4.95;;;27.30;54.80;;;;;;5078559;28;20020;-76
2023/05/28 12:29:44;;;;;;;11.35;4.90;;;26.90;54.70;;;;;;5093014;28;20482;-76
2023/05/28 12:32:11;;;;;;;9.27;4.75;;;27.60;54.10;;;;;;5090850;28;20027;-75
2023/05/28 12:34:37;;;;;;;9.48;3.95;;;26.30;55.40;;;;;;5093810;28;20044;-75
2023/05/28 12:37:03;;;;;;;9.75;4.22;;;26.30;55.20;;;;;;5095691;28;20048;-75
2023/05/28 12:39:30;;;;;;;7.93;3.97;;;26.80;55.00;;;;;;5094706;28;20035;-75
2023/05/28 12:41:55;;;;;;;10.45;4.43;;;26.90;55.30;;;;;;5097604;28;20020;-76